sensor_id;sensor_type;location;lat;lon;timestamp;pressure;altitude;pressure_sealevel;temperature;humidity
58753;BME280;44525;46.052;13.610;2023-10-13T00:01:23;101199.13;;;17.14;100.00
58753;BME280;44525;46.052;13.610;2023-10-13T00:03:50;101194.69;;;17.27;100.00
58753;BME280;44525;46.052;13.610;2023-10-13T00:06:19;101190.75;;;17.42;100.00
58753;BME280;44525;46.052;13.610;2023-10-13T00:08:45;101187.38;;;17.45;100.00
58753;BME280;44525;46.052;13.610;2023-10-13T00:11:14;101192.81;;;17.36;100.00
58753;BME280;44525;46.052;13.610;2023-10-13T00:13:40;101189.94;;;17.41;100.00
58753;BME280;44525;46.052;13.610;2023-10-13T00:16:14;101184.13;;;17.43;100.00
58753;BME280;44525;46.052;13.610;2023-10-13T00:18:43;101188.47;;;17.35;100.00
58753;BME280;44525;46.052;13.610;2023-10-13T00:21:10;101184.41;;;17.32;100.00
58753;BME280;44525;46.052;13.610;2023-10-13T00:23:39;101185.94;;;17.47;100.00
58753;BME280;44525;46.052;13.610;2023-10-13T00:26:14;101193.16;;;17.43;100.00
58753;BME280;44525;46.052;13.610;2023-10-13T00:28:43;101188.13;;;17.36;100.00
58753;BME280;44525;46.052;13.610;2023-10-13T00:31:11;101186.03;;;17.33;100.00
58753;BME280;44525;46.052;13.610;2023-10-13T00:33:38;101191.94;;;17.27;100.00
58753;BME280;44525;46.052;13.610;2023-10-13T00:36:04;101188.88;;;17.51;100.00
58753;BME280;44525;46.052;13.610;2023-10-13T00:38:31;101194.00;;;17.44;100.00
58753;BME280;44525;46.052;13.610;2023-10-13T00:40:57;101190.78;;;17.50;100.00
58753;BME280;44525;46.052;13.610;2023-10-13T00:43:29;101187.88;;;17.47;100.00
58753;BME280;44525;46.052;13.610;2023-10-13T00:45:58;101188.31;;;17.40;100.00
58753;BME280;44525;46.052;13.610;2023-10-13T00:48:37;101190.56;;;17.38;100.00
58753;BME280;44525;46.052;13.610;2023-10-13T00:51:17;101200.69;;;17.29;100.00
58753;BME280;44525;46.052;13.610;2023-10-13T00:53:47;101185.41;;;17.36;100.00
58753;BME280;44525;46.052;13.610;2023-10-13T00:56:14;101178.31;;;17.44;100.00
58753;BME280;44525;46.052;13.610;2023-10-13T00:58:47;101175.34;;;17.32;100.00
58753;BME280;44525;46.052;13.610;2023-10-13T01:01:15;101177.16;;;17.36;100.00
58753;BME280;44525;46.052;13.610;2023-10-13T01:03:55;101179.44;;;17.43;100.00
58753;BME280;44525;46.052;13.610;2023-10-13T01:06:29;101180.22;;;17.35;100.00
58753;BME280;44525;46.052;13.610;2023-10-13T01:09:08;101192.25;;;17.25;100.00
58753;BME280;44525;46.052;13.610;2023-10-13T01:11:38;101196.56;;;17.17;100.00
58753;BME280;44525;46.052;13.610;2023-10-13T01:14:03;101190.13;;;17.22;100.00
58753;BME280;44525;46.052;13.610;2023-10-13T01:16:31;101195.53;;;17.27;100.00
58753;BME280;44525;46.052;13.610;2023-10-13T01:18:57;101183.16;;;17.16;100.00
58753;BME280;44525;46.052;13.610;2023-10-13T01:21:25;101186.22;;;17.14;100.00
58753;BME280;44525;46.052;13.610;2023-10-13T01:23:53;101192.47;;;17.29;100.00
58753;BME280;44525;46.052;13.610;2023-10-13T01:26:19;101185.75;;;17.44;100.00
58753;BME280;44525;46.052;13.610;2023-10-13T01:28:50;101182.97;;;17.35;100.00
58753;BME280;44525;46.052;13.610;2023-10-13T01:31:16;101190.81;;;17.28;100.00
58753;BME280;44525;46.052;13.610;2023-10-13T01:34:02;101185.97;;;17.25;100.00
58753;BME280;44525;46.052;13.610;2023-10-13T01:36:28;101183.34;;;17.19;100.00
58753;BME280;44525;46.052;13.610;2023-10-13T01:38:54;101188.50;;;17.21;100.00
58753;BME280;44525;46.052;13.610;2023-10-13T01:41:21;101180.34;;;17.30;100.00
58753;BME280;44525;46.052;13.610;2023-10-13T01:43:46;101192.50;;;17.15;100.00
58753;BME280;44525;46.052;13.610;2023-10-13T01:46:13;101193.50;;;17.19;100.00
58753;BME280;44525;46.052;13.610;2023-10-13T01:48:40;101189.28;;;17.13;100.00
58753;BME280;44525;46.052;13.610;2023-10-13T01:51:06;101191.81;;;17.09;100.00
58753;BME280;44525;46.052;13.610;2023-10-13T01:53:36;101176.59;;;17.03;100.00
58753;BME280;44525;46.052;13.610;2023-10-13T01:56:02;101183.22;;;17.02;100.00
58753;BME280;44525;46.052;13.610;2023-10-13T01:58:31;101174.00;;;16.98;100.00
58753;BME280;44525;46.052;13.610;2023-10-13T02:00:56;101178.03;;;17.00;100.00
58753;BME280;44525;46.052;13.610;2023-10-13T02:03:22;101172.22;;;17.02;100.00
58753;BME280;44525;46.052;13.610;2023-10-13T02:05:48;101176.13;;;17.01;100.00
58753;BME280;44525;46.052;13.610;2023-10-13T02:08:19;101176.53;;;16.94;100.00
58753;BME280;44525;46.052;13.610;2023-10-13T02:10:51;101183.78;;;17.13;100.00
58753;BME280;44525;46.052;13.610;2023-10-13T02:13:17;101170.13;;;17.22;100.00
58753;BME280;44525;46.052;13.610;2023-10-13T02:15:46;101166.44;;;17.26;100.00
58753;BME280;44525;46.052;13.610;2023-10-13T02:18:19;101166.75;;;17.02;100.00
58753;BME280;44525;46.052;13.610;2023-10-13T02:20:52;101170.94;;;16.99;100.00
58753;BME280;44525;46.052;13.610;2023-10-13T02:23:25;101164.63;;;16.99;100.00
58753;BME280;44525;46.052;13.610;2023-10-13T02:25:54;101164.19;;;17.06;100.00
58753;BME280;44525;46.052;13.610;2023-10-13T02:28:36;101177.28;;;17.09;100.00
58753;BME280;44525;46.052;13.610;2023-10-13T02:31:05;101161.75;;;17.04;100.00
58753;BME280;44525;46.052;13.610;2023-10-13T02:33:32;101164.31;;;17.00;100.00
58753;BME280;44525;46.052;13.610;2023-10-13T02:35:59;101160.91;;;16.95;100.00
58753;BME280;44525;46.052;13.610;2023-10-13T02:38:28;101161.38;;;16.97;100.00
58753;BME280;44525;46.052;13.610;2023-10-13T02:40:59;101170.00;;;17.04;100.00
58753;BME280;44525;46.052;13.610;2023-10-13T02:43:34;101169.72;;;16.92;100.00
58753;BME280;44525;46.052;13.610;2023-10-13T02:46:00;101170.41;;;16.97;100.00
58753;BME280;44525;46.052;13.610;2023-10-13T02:48:27;101166.50;;;16.90;100.00
58753;BME280;44525;46.052;13.610;2023-10-13T02:50:59;101159.97;;;16.99;100.00
58753;BME280;44525;46.052;13.610;2023-10-13T02:53:30;101156.97;;;17.10;100.00
58753;BME280;44525;46.052;13.610;2023-10-13T02:55:56;101156.34;;;17.13;100.00
58753;BME280;44525;46.052;13.610;2023-10-13T02:58:32;101167.56;;;17.03;100.00
58753;BME280;44525;46.052;13.610;2023-10-13T03:01:09;101154.41;;;16.91;100.00
58753;BME280;44525;46.052;13.610;2023-10-13T03:03:50;101164.13;;;16.97;100.00
58753;BME280;44525;46.052;13.610;2023-10-13T03:06:24;101166.09;;;16.82;100.00
58753;BME280;44525;46.052;13.610;2023-10-13T03:08:57;101169.69;;;16.69;100.00
58753;BME280;44525;46.052;13.610;2023-10-13T03:11:25;101161.91;;;16.85;100.00
58753;BME280;44525;46.052;13.610;2023-10-13T03:13:51;101164.59;;;16.76;100.00
58753;BME280;44525;46.052;13.610;2023-10-13T03:16:18;101174.38;;;16.69;100.00
58753;BME280;44525;46.052;13.610;2023-10-13T03:18:46;101172.66;;;16.59;100.00
58753;BME280;44525;46.052;13.610;2023-10-13T03:21:21;101176.03;;;16.78;100.00
58753;BME280;44525;46.052;13.610;2023-10-13T03:24:00;101170.78;;;16.68;100.00
58753;BME280;44525;46.052;13.610;2023-10-13T03:26:32;101167.50;;;16.80;100.00
58753;BME280;44525;46.052;13.610;2023-10-13T03:29:01;101167.50;;;16.80;100.00
58753;BME280;44525;46.052;13.610;2023-10-13T03:31:29;101168.75;;;16.74;100.00
58753;BME280;44525;46.052;13.610;2023-10-13T03:33:55;101168.44;;;16.75;100.00
58753;BME280;44525;46.052;13.610;2023-10-13T03:36:26;101178.00;;;16.78;100.00
58753;BME280;44525;46.052;13.610;2023-10-13T03:39:10;101180.47;;;16.65;100.00
58753;BME280;44525;46.052;13.610;2023-10-13T03:41:36;101175.41;;;16.59;100.00
58753;BME280;44525;46.052;13.610;2023-10-13T03:44:04;101173.47;;;16.59;100.00
58753;BME280;44525;46.052;13.610;2023-10-13T03:46:38;101174.59;;;16.44;100.00
58753;BME280;44525;46.052;13.610;2023-10-13T03:49:06;101174.91;;;16.43;100.00
58753;BME280;44525;46.052;13.610;2023-10-13T03:51:31;101177.03;;;16.60;100.00
58753;BME280;44525;46.052;13.610;2023-10-13T03:53:57;101179.66;;;16.65;100.00
58753;BME280;44525;46.052;13.610;2023-10-13T03:56:28;101185.03;;;16.70;100.00
58753;BME280;44525;46.052;13.610;2023-10-13T03:59:07;101177.66;;;16.57;100.00
58753;BME280;44525;46.052;13.610;2023-10-13T04:01:37;101169.91;;;16.59;100.00
58753;BME280;44525;46.052;13.610;2023-10-13T04:04:24;101173.22;;;16.70;100.00
58753;BME280;44525;46.052;13.610;2023-10-13T04:07:02;101166.13;;;16.69;100.00
58753;BME280;44525;46.052;13.610;2023-10-13T04:09:35;101164.94;;;16.61;100.00
58753;BME280;44525;46.052;13.610;2023-10-13T04:12:13;101157.53;;;16.47;100.00
58753;BME280;44525;46.052;13.610;2023-10-13T04:14:44;101163.81;;;16.62;100.00
58753;BME280;44525;46.052;13.610;2023-10-13T04:17:28;101171.47;;;16.51;100.00
58753;BME280;44525;46.052;13.610;2023-10-13T04:19:57;101163.03;;;16.47;100.00
58753;BME280;44525;46.052;13.610;2023-10-13T04:22:43;101150.03;;;16.53;100.00
58753;BME280;44525;46.052;13.610;2023-10-13T04:25:22;101162.31;;;16.56;100.00
58753;BME280;44525;46.052;13.610;2023-10-13T04:28:01;101162.31;;;16.56;100.00
58753;BME280;44525;46.052;13.610;2023-10-13T04:30:56;101165.19;;;16.51;100.00
58753;BME280;44525;46.052;13.610;2023-10-13T04:33:29;101152.69;;;16.44;100.00
58753;BME280;44525;46.052;13.610;2023-10-13T04:36:11;101168.50;;;16.47;100.00
58753;BME280;44525;46.052;13.610;2023-10-13T04:38:53;101166.78;;;16.52;100.00
58753;BME280;44525;46.052;13.610;2023-10-13T04:41:32;101165.75;;;16.61;100.00
58753;BME280;44525;46.052;13.610;2023-10-13T04:44:09;101167.41;;;16.48;100.00
58753;BME280;44525;46.052;13.610;2023-10-13T04:46:54;101163.78;;;16.39;100.00
58753;BME280;44525;46.052;13.610;2023-10-13T04:49:34;101174.38;;;16.55;100.00
58753;BME280;44525;46.052;13.610;2023-10-13T04:52:03;101163.88;;;16.34;100.00
58753;BME280;44525;46.052;13.610;2023-10-13T04:54:37;101175.13;;;16.33;100.00
58753;BME280;44525;46.052;13.610;2023-10-13T04:57:24;101174.16;;;16.28;100.00
58753;BME280;44525;46.052;13.610;2023-10-13T05:00:08;101179.41;;;16.39;100.00
58753;BME280;44525;46.052;13.610;2023-10-13T05:02:44;101188.94;;;16.41;100.00
58753;BME280;44525;46.052;13.610;2023-10-13T05:05:28;101190.69;;;16.37;100.00
58753;BME280;44525;46.052;13.610;2023-10-13T05:08:13;101195.88;;;16.39;100.00
58753;BME280;44525;46.052;13.610;2023-10-13T05:10:57;101188.44;;;16.39;100.00
58753;BME280;44525;46.052;13.610;2023-10-13T05:13:41;101195.16;;;16.33;100.00
58753;BME280;44525;46.052;13.610;2023-10-13T05:16:25;101195.34;;;16.37;100.00
58753;BME280;44525;46.052;13.610;2023-10-13T05:19:09;101197.06;;;16.46;100.00
58753;BME280;44525;46.052;13.610;2023-10-13T05:21:53;101189.38;;;16.35;100.00
58753;BME280;44525;46.052;13.610;2023-10-13T05:24:36;101193.44;;;16.23;100.00
58753;BME280;44525;46.052;13.610;2023-10-13T05:27:20;101200.03;;;16.22;100.00
58753;BME280;44525;46.052;13.610;2023-10-13T05:30:05;101204.19;;;16.06;100.00
58753;BME280;44525;46.052;13.610;2023-10-13T05:32:48;101208.75;;;16.10;100.00
58753;BME280;44525;46.052;13.610;2023-10-13T05:35:32;101209.88;;;16.23;100.00
58753;BME280;44525;46.052;13.610;2023-10-13T05:38:16;101212.03;;;16.12;100.00
58753;BME280;44525;46.052;13.610;2023-10-13T05:41:03;101214.16;;;16.16;100.00
58753;BME280;44525;46.052;13.610;2023-10-13T05:43:47;101215.06;;;16.25;100.00
58753;BME280;44525;46.052;13.610;2023-10-13T05:46:32;101222.78;;;16.23;100.00
58753;BME280;44525;46.052;13.610;2023-10-13T05:49:05;101225.00;;;16.21;100.00
58753;BME280;44525;46.052;13.610;2023-10-13T05:51:31;101221.63;;;16.24;100.00
58753;BME280;44525;46.052;13.610;2023-10-13T05:54:13;101227.03;;;16.29;100.00
58753;BME280;44525;46.052;13.610;2023-10-13T05:56:46;101228.44;;;16.26;100.00
58753;BME280;44525;46.052;13.610;2023-10-13T05:59:32;101233.41;;;16.38;100.00
58753;BME280;44525;46.052;13.610;2023-10-13T06:02:18;101230.06;;;16.41;100.00
58753;BME280;44525;46.052;13.610;2023-10-13T06:05:02;101235.44;;;16.46;100.00
58753;BME280;44525;46.052;13.610;2023-10-13T06:07:46;101238.59;;;16.54;100.00
58753;BME280;44525;46.052;13.610;2023-10-13T06:10:30;101235.25;;;16.57;100.00
58753;BME280;44525;46.052;13.610;2023-10-13T06:13:14;101237.75;;;16.53;100.00
58753;BME280;44525;46.052;13.610;2023-10-13T06:15:58;101231.88;;;16.60;100.00
58753;BME280;44525;46.052;13.610;2023-10-13T06:18:42;101239.06;;;16.70;100.00
58753;BME280;44525;46.052;13.610;2023-10-13T06:21:26;101245.06;;;16.72;100.00
58753;BME280;44525;46.052;13.610;2023-10-13T06:24:10;101243.88;;;16.64;100.00
58753;BME280;44525;46.052;13.610;2023-10-13T06:26:54;101251.56;;;16.62;100.00
58753;BME280;44525;46.052;13.610;2023-10-13T06:29:38;101250.56;;;16.58;100.00
58753;BME280;44525;46.052;13.610;2023-10-13T06:32:03;101253.69;;;16.79;100.00
58753;BME280;44525;46.052;13.610;2023-10-13T06:34:38;101253.38;;;16.80;100.00
58753;BME280;44525;46.052;13.610;2023-10-13T06:37:16;101261.47;;;16.86;100.00
58753;BME280;44525;46.052;13.610;2023-10-13T06:39:52;101267.81;;;16.86;100.00
58753;BME280;44525;46.052;13.610;2023-10-13T06:42:24;101264.66;;;16.93;100.00
58753;BME280;44525;46.052;13.610;2023-10-13T06:44:53;101261.88;;;17.07;100.00
58753;BME280;44525;46.052;13.610;2023-10-13T06:47:20;101266.78;;;16.96;100.00
58753;BME280;44525;46.052;13.610;2023-10-13T06:49:46;101269.09;;;17.03;100.00
58753;BME280;44525;46.052;13.610;2023-10-13T06:52:14;101270.13;;;16.93;100.00
58753;BME280;44525;46.052;13.610;2023-10-13T06:54:41;101268.31;;;16.88;100.00
58753;BME280;44525;46.052;13.610;2023-10-13T06:57:08;101277.66;;;17.01;100.00
58753;BME280;44525;46.052;13.610;2023-10-13T06:59:39;101277.53;;;17.06;100.00
58753;BME280;44525;46.052;13.610;2023-10-13T07:02:06;101276.50;;;17.16;100.00
58753;BME280;44525;46.052;13.610;2023-10-13T07:04:33;101283.31;;;17.18;100.00
58753;BME280;44525;46.052;13.610;2023-10-13T07:06:59;101283.41;;;17.13;100.00
58753;BME280;44525;46.052;13.610;2023-10-13T07:09:26;101288.00;;;17.41;100.00
58753;BME280;44525;46.052;13.610;2023-10-13T07:12:04;101284.66;;;17.98;100.00
58753;BME280;44525;46.052;13.610;2023-10-13T07:14:45;101281.31;;;18.41;96.29
58753;BME280;44525;46.052;13.610;2023-10-13T07:17:17;101283.31;;;18.67;93.48
58753;BME280;44525;46.052;13.610;2023-10-13T07:19:52;101280.38;;;18.54;92.31
58753;BME280;44525;46.052;13.610;2023-10-13T07:22:44;101280.44;;;18.89;92.08
58753;BME280;44525;46.052;13.610;2023-10-13T07:25:23;101286.59;;;19.74;85.94
58753;BME280;44525;46.052;13.610;2023-10-13T07:27:52;101285.47;;;20.22;82.24
58753;BME280;44525;46.052;13.610;2023-10-13T07:30:19;101279.97;;;20.22;80.28
58753;BME280;44525;46.052;13.610;2023-10-13T07:32:51;101282.84;;;20.94;77.26
58753;BME280;44525;46.052;13.610;2023-10-13T07:35:18;101280.06;;;21.36;75.54
58753;BME280;44525;46.052;13.610;2023-10-13T07:37:44;101283.50;;;22.13;72.22
58753;BME280;44525;46.052;13.610;2023-10-13T07:40:14;101276.41;;;22.49;70.19
58753;BME280;44525;46.052;13.610;2023-10-13T07:42:56;101277.09;;;22.99;67.98
58753;BME280;44525;46.052;13.610;2023-10-13T07:45:38;101273.72;;;22.77;66.49
58753;BME280;44525;46.052;13.610;2023-10-13T07:48:05;101276.84;;;22.63;67.95
58753;BME280;44525;46.052;13.610;2023-10-13T07:50:40;101273.66;;;23.14;65.91
58753;BME280;44525;46.052;13.610;2023-10-13T07:53:06;101275.06;;;23.80;63.76
58753;BME280;44525;46.052;13.610;2023-10-13T07:55:45;101269.19;;;24.30;63.43
58753;BME280;44525;46.052;13.610;2023-10-13T07:58:12;101263.81;;;25.28;59.26
58753;BME280;44525;46.052;13.610;2023-10-13T08:00:39;101267.03;;;25.10;57.90
58753;BME280;44525;46.052;13.610;2023-10-13T08:03:10;101265.81;;;25.47;57.45
58753;BME280;44525;46.052;13.610;2023-10-13T08:05:45;101263.31;;;25.42;56.52
58753;BME280;44525;46.052;13.610;2023-10-13T08:08:29;101262.63;;;25.29;57.28
58753;BME280;44525;46.052;13.610;2023-10-13T08:11:07;101273.63;;;25.84;55.09
58753;BME280;44525;46.052;13.610;2023-10-13T08:14:03;101267.16;;;24.98;57.64
58753;BME280;44525;46.052;13.610;2023-10-13T08:16:47;101266.25;;;24.23;59.69
58753;BME280;44525;46.052;13.610;2023-10-13T08:22:05;101264.19;;;23.03;nan
58753;BME280;44525;46.052;13.610;2023-10-13T08:24:45;101264.13;;;22.74;nan
58753;BME280;44525;46.052;13.610;2023-10-13T08:27:13;101273.38;;;22.54;nan
58753;BME280;44525;46.052;13.610;2023-10-13T08:29:45;101267.81;;;22.78;nan
58753;BME280;44525;46.052;13.610;2023-10-13T08:39:03;101266.88;;;24.16;nan
58753;BME280;44525;46.052;13.610;2023-10-13T08:41:48;101270.06;;;24.66;nan
58753;BME280;44525;46.052;13.610;2023-10-13T08:44:39;101262.88;;;25.39;nan
58753;BME280;44525;46.052;13.610;2023-10-13T08:47:11;101265.03;;;25.92;nan
58753;BME280;44525;46.052;13.610;2023-10-13T08:49:42;101266.94;;;26.35;nan
58753;BME280;44525;46.052;13.610;2023-10-13T08:52:17;101266.94;;;26.35;nan
58753;BME280;44525;46.052;13.610;2023-10-13T08:55:02;101268.38;;;27.09;nan
58753;BME280;44525;46.052;13.610;2023-10-13T08:57:45;101269.94;;;27.06;nan
58753;BME280;44525;46.052;13.610;2023-10-13T09:00:15;101275.88;;;26.48;nan
58753;BME280;44525;46.052;13.610;2023-10-13T09:02:55;101276.91;;;26.36;nan
58753;BME280;44525;46.052;13.610;2023-10-13T09:05:52;101270.22;;;26.17;nan
58753;BME280;44525;46.052;13.610;2023-10-13T09:08:28;101275.56;;;26.79;nan
58753;BME280;44525;46.052;13.610;2023-10-13T09:11:02;101260.66;;;26.99;nan
58753;BME280;44525;46.052;13.610;2023-10-13T09:13:37;101265.84;;;25.93;nan
58753;BME280;44525;46.052;13.610;2023-10-13T09:16:12;101268.94;;;25.45;nan
58753;BME280;44525;46.052;13.610;2023-10-13T09:18:46;101261.13;;;24.92;nan
58753;BME280;44525;46.052;13.610;2023-10-13T09:21:14;101266.16;;;24.35;nan
58753;BME280;44525;46.052;13.610;2023-10-13T09:23:58;101263.00;;;24.21;nan
58753;BME280;44525;46.052;13.610;2023-10-13T09:26:42;101258.00;;;23.78;nan
58753;BME280;44525;46.052;13.610;2023-10-13T09:29:15;101268.09;;;23.42;nan
58753;BME280;44525;46.052;13.610;2023-10-13T09:31:43;101258.50;;;23.24;nan
58753;BME280;44525;46.052;13.610;2023-10-13T09:34:10;101261.44;;;23.31;nan
58753;BME280;44525;46.052;13.610;2023-10-13T09:36:35;101263.88;;;23.33;nan
58753;BME280;44525;46.052;13.610;2023-10-13T09:39:01;101256.91;;;22.98;nan
58753;BME280;44525;46.052;13.610;2023-10-13T09:41:41;101258.47;;;22.83;nan
58753;BME280;44525;46.052;13.610;2023-10-13T09:44:07;101256.97;;;22.86;nan
58753;BME280;44525;46.052;13.610;2023-10-13T09:46:37;101264.31;;;22.94;nan
58753;BME280;44525;46.052;13.610;2023-10-13T09:49:11;101261.59;;;22.82;nan
58753;BME280;44525;46.052;13.610;2023-10-13T09:51:48;101256.53;;;22.71;nan
58753;BME280;44525;46.052;13.610;2023-10-13T09:54:36;101255.88;;;22.37;nan
58753;BME280;44525;46.052;13.610;2023-10-13T09:57:16;101254.25;;;22.36;nan
58753;BME280;44525;46.052;13.610;2023-10-13T09:59:52;101263.25;;;22.46;nan
58753;BME280;44525;46.052;13.610;2023-10-13T10:02:21;101256.31;;;22.39;nan
58753;BME280;44525;46.052;13.610;2023-10-13T10:04:56;101254.16;;;22.33;nan
58753;BME280;44525;46.052;13.610;2023-10-13T10:07:38;101254.44;;;22.19;nan
58753;BME280;44525;46.052;13.610;2023-10-13T10:10:05;101251.47;;;22.36;nan
58753;BME280;44525;46.052;13.610;2023-10-13T10:12:51;101245.69;;;22.29;nan
58753;BME280;44525;46.052;13.610;2023-10-13T10:15:23;101245.94;;;22.24;nan
58753;BME280;44525;46.052;13.610;2023-10-13T10:17:56;101242.44;;;22.02;nan
58753;BME280;44525;46.052;13.610;2023-10-13T10:20:32;101249.59;;;22.03;nan
58753;BME280;44525;46.052;13.610;2023-10-13T10:23:08;101240.16;;;22.17;nan
58753;BME280;44525;46.052;13.610;2023-10-13T10:25:47;101241.91;;;22.09;nan
58753;BME280;44525;46.052;13.610;2023-10-13T10:28:13;101235.19;;;21.98;nan
58753;BME280;44525;46.052;13.610;2023-10-13T10:30:41;101227.81;;;22.14;nan
58753;BME280;44525;46.052;13.610;2023-10-13T10:33:08;101229.44;;;22.28;nan
58753;BME280;44525;46.052;13.610;2023-10-13T10:35:45;101226.22;;;22.38;nan
58753;BME280;44525;46.052;13.610;2023-10-13T10:38:18;101225.19;;;22.55;nan
58753;BME280;44525;46.052;13.610;2023-10-13T10:41:16;101218.41;;;22.81;nan
58753;BME280;44525;46.052;13.610;2023-10-13T10:43:49;101216.91;;;22.83;nan
58753;BME280;44525;46.052;13.610;2023-10-13T10:46:25;101220.59;;;22.87;nan
58753;BME280;44525;46.052;13.610;2023-10-13T10:48:51;101218.75;;;22.91;nan
58753;BME280;44525;46.052;13.610;2023-10-13T10:51:22;101214.00;;;22.92;nan
58753;BME280;44525;46.052;13.610;2023-10-13T10:53:48;101211.94;;;22.89;nan
58753;BME280;44525;46.052;13.610;2023-10-13T10:56:17;101208.81;;;22.90;nan
58753;BME280;44525;46.052;13.610;2023-10-13T10:59:05;101212.16;;;22.96;nan
58753;BME280;44525;46.052;13.610;2023-10-13T11:01:33;101206.78;;;23.16;nan
58753;BME280;44525;46.052;13.610;2023-10-13T11:04:12;101208.88;;;23.35;nan
58753;BME280;44525;46.052;13.610;2023-10-13T11:07:01;101205.69;;;23.48;nan
58753;BME280;44525;46.052;13.610;2023-10-13T11:09:32;101201.47;;;23.55;nan
58753;BME280;44525;46.052;13.610;2023-10-13T11:14:45;101191.94;;;23.68;nan
58753;BME280;44525;46.052;13.610;2023-10-13T11:17:23;101192.84;;;23.88;nan
58753;BME280;44525;46.052;13.610;2023-10-13T11:20:12;101175.34;;;24.20;nan
58753;BME280;44525;46.052;13.610;2023-10-13T11:22:45;101178.53;;;24.02;nan
58753;BME280;44525;46.052;13.610;2023-10-13T11:25:27;101176.19;;;24.04;nan
58753;BME280;44525;46.052;13.610;2023-10-13T11:28:10;101177.91;;;23.93;nan
58753;BME280;44525;46.052;13.610;2023-10-13T11:30:43;101174.31;;;23.76;nan
58753;BME280;44525;46.052;13.610;2023-10-13T11:33:11;101173.22;;;23.81;nan
58753;BME280;44525;46.052;13.610;2023-10-13T11:35:40;101179.13;;;23.63;nan
58753;BME280;44525;46.052;13.610;2023-10-13T11:38:22;101170.47;;;23.49;nan
58753;BME280;44525;46.052;13.610;2023-10-13T11:40:58;101165.88;;;23.41;nan
58753;BME280;44525;46.052;13.610;2023-10-13T11:43:30;101161.50;;;23.24;nan
58753;BME280;44525;46.052;13.610;2023-10-13T11:46:00;101163.38;;;23.07;nan
58753;BME280;44525;46.052;13.610;2023-10-13T11:48:40;101155.94;;;22.95;nan
58753;BME280;44525;46.052;13.610;2023-10-13T11:51:11;101155.84;;;22.92;nan
58753;BME280;44525;46.052;13.610;2023-10-13T11:53:44;101157.69;;;22.88;nan
58753;BME280;44525;46.052;13.610;2023-10-13T11:56:10;101151.72;;;22.86;nan
58753;BME280;44525;46.052;13.610;2023-10-13T11:58:37;101145.25;;;22.82;nan
58753;BME280;44525;46.052;13.610;2023-10-13T12:01:02;101142.94;;;22.84;nan
58753;BME280;44525;46.052;13.610;2023-10-13T12:03:43;101147.13;;;22.77;nan
58753;BME280;44525;46.052;13.610;2023-10-13T12:06:29;101143.03;;;22.59;nan
58753;BME280;44525;46.052;13.610;2023-10-13T12:11:38;101135.63;;;22.63;nan
58753;BME280;44525;46.052;13.610;2023-10-13T12:14:07;101138.31;;;22.59;nan
58753;BME280;44525;46.052;13.610;2023-10-13T12:16:51;101132.69;;;22.56;nan
58753;BME280;44525;46.052;13.610;2023-10-13T12:19:24;101130.84;;;22.48;nan
58753;BME280;44525;46.052;13.610;2023-10-13T12:21:50;101128.91;;;22.36;nan
58753;BME280;44525;46.052;13.610;2023-10-13T12:24:22;101128.91;;;22.36;nan
58753;BME280;44525;46.052;13.610;2023-10-13T12:27:00;101125.53;;;22.30;nan
58753;BME280;44525;46.052;13.610;2023-10-13T12:29:26;101123.75;;;22.22;nan
58753;BME280;44525;46.052;13.610;2023-10-13T12:31:56;101117.50;;;22.25;nan
58753;BME280;44525;46.052;13.610;2023-10-13T12:34:36;101128.78;;;22.20;nan
58753;BME280;44525;46.052;13.610;2023-10-13T12:37:20;101128.22;;;22.14;nan
58753;BME280;44525;46.052;13.610;2023-10-13T12:40:21;101113.94;;;22.12;nan
58753;BME280;44525;46.052;13.610;2023-10-13T12:43:05;101124.66;;;22.14;nan
58753;BME280;44525;46.052;13.610;2023-10-13T12:45:50;101124.75;;;22.17;nan
58753;BME280;44525;46.052;13.610;2023-10-13T12:48:35;101123.25;;;22.20;nan
58753;BME280;44525;46.052;13.610;2023-10-13T12:51:20;101121.63;;;22.31;nan
58753;BME280;44525;46.052;13.610;2023-10-13T12:54:00;101116.22;;;22.22;nan
58753;BME280;44525;46.052;13.610;2023-10-13T12:56:41;101114.72;;;22.25;nan
58753;BME280;44525;46.052;13.610;2023-10-13T12:59:10;101113.91;;;22.24;nan
58753;BME280;44525;46.052;13.610;2023-10-13T13:01:39;101106.53;;;22.29;nan
58753;BME280;44525;46.052;13.610;2023-10-13T13:04:08;101106.41;;;22.37;nan
58753;BME280;44525;46.052;13.610;2023-10-13T13:06:43;101111.03;;;22.46;nan
58753;BME280;44525;46.052;13.610;2023-10-13T13:09:09;101111.06;;;22.62;nan
58753;BME280;44525;46.052;13.610;2023-10-13T13:11:35;101100.81;;;22.62;nan
58753;BME280;44525;46.052;13.610;2023-10-13T13:14:08;101092.78;;;22.73;nan
58753;BME280;44525;46.052;13.610;2023-10-13T13:16:34;101091.94;;;22.85;nan
58753;BME280;44525;46.052;13.610;2023-10-13T13:19:00;101089.16;;;22.85;nan
58753;BME280;44525;46.052;13.610;2023-10-13T13:21:38;101095.59;;;22.89;nan
58753;BME280;44525;46.052;13.610;2023-10-13T13:24:04;101086.50;;;22.88;nan
58753;BME280;44525;46.052;13.610;2023-10-13T13:26:38;101080.50;;;22.86;nan
58753;BME280;44525;46.052;13.610;2023-10-13T13:29:06;101086.38;;;22.85;nan
58753;BME280;44525;46.052;13.610;2023-10-13T13:31:35;101078.72;;;22.78;nan
58753;BME280;44525;46.052;13.610;2023-10-13T13:34:09;101072.63;;;22.72;nan